Time,TemperatureF,DewpointF,PressureIn,WindDirection,WindDirectionDegrees,WindSpeedMPH,WindSpeedGustMPH,Humidity,HourlyPrecipIn,Conditions,Clouds,dailyrainin,SolarRadiationWatts/m^2,SoftwareType,DateUTC
2013-03-11 00:00:00,32.2,-2.3,30.22,SSW,199,3.0,-999.0,22,0.00,,,0.00,0,WeatherHawk,2013-03-11 06:00:00,
2013-03-11 00:05:00,32.0,0.2,30.23,SSW,192,0.0,-999.0,25,0.00,,,0.00,0,WeatherHawk,2013-03-11 06:05:00,
2013-03-11 00:10:00,30.8,0.8,30.22,SSW,198,0.0,-999.0,27,0.00,,,0.00,0,WeatherHawk,2013-03-11 06:10:00,
2013-03-11 00:20:00,30.3,6.0,30.22,SSW,198,0.0,-999.0,35,0.00,,,0.00,0,WeatherHawk,2013-03-11 06:20:00,
2013-03-11 00:25:00,30.4,6.6,30.22,SSW,197,0.0,-999.0,36,0.00,,,0.00,0,WeatherHawk,2013-03-11 06:25:00,
2013-03-11 00:30:00,34.1,6.6,30.21,SSW,203,2.0,-999.0,31,0.00,,,0.00,0,WeatherHawk,2013-03-11 06:30:00,
2013-03-11 00:35:00,38.3,-6.7,30.22,SW,229,8.0,-999.0,14,0.00,,,0.00,0,WeatherHawk,2013-03-11 06:35:00,
2013-03-11 00:40:00,33.3,-0.4,30.22,SSW,208,3.0,-999.0,23,0.00,,,0.00,0,WeatherHawk,2013-03-11 06:40:00,
2013-03-11 00:45:00,40.3,-8.2,30.21,SSE,158,6.0,-999.0,12,0.00,,,0.00,0,WeatherHawk,2013-03-11 06:45:00,
2013-03-11 00:50:00,41.2,-18.2,30.21,WNW,293,3.0,-999.0,7,0.00,,,0.00,0,WeatherHawk,2013-03-11 06:50:00,
2013-03-11 01:00:00,41.9,-10.7,30.19,WSW,251,4.0,-999.0,10,0.00,,,0.00,0,WeatherHawk,2013-03-11 07:00:00,
2013-03-11 01:05:00,41.0,-11.3,30.19,WSW,242,1.0,-999.0,10,0.00,,,0.00,0,WeatherHawk,2013-03-11 07:05:00,
2013-03-11 01:15:00,40.9,-11.4,30.20,West,275,5.0,-999.0,10,0.00,,,0.00,0,WeatherHawk,2013-03-11 07:15:00,
2013-03-11 01:20:00,37.7,-16.0,30.19,SSW,210,0.0,-999.0,9,0.00,,,0.00,0,WeatherHawk,2013-03-11 07:20:00,
2013-03-11 01:30:00,41.5,-10.9,30.20,SSW,213,0.0,-999.0,10,0.00,,,0.00,0,WeatherHawk,2013-03-11 07:30:00,
2013-03-11 01:35:00,39.3,-14.7,30.19,South,189,4.0,-999.0,9,0.00,,,0.00,0,WeatherHawk,2013-03-11 07:35:00,
2013-03-11 01:40:00,39.8,-14.4,30.19,WSW,248,4.0,-999.0,9,0.00,,,0.00,0,WeatherHawk,2013-03-11 07:40:00,
2013-03-11 01:50:00,41.2,-11.2,30.18,SSW,213,5.0,-999.0,10,0.00,,,0.00,0,WeatherHawk,2013-03-11 07:50:00,
2013-03-11 01:55:00,43.9,-7.2,30.17,WSW,251,8.0,-999.0,11,0.00,,,0.00,0,WeatherHawk,2013-03-11 07:55:00,
2013-03-11 02:00:00,44.4,-18.8,30.18,West,275,6.0,-999.0,6,0.00,,,0.00,1,WeatherHawk,2013-03-11 08:00:00,
2013-03-11 02:10:00,42.1,-8.6,30.17,SSW,201,1.0,-999.0,11,0.00,,,0.00,0,WeatherHawk,2013-03-11 08:10:00,
2013-03-11 02:20:00,44.9,-22.0,30.16,SW,221,5.0,-999.0,5,0.00,,,0.00,0,WeatherHawk,2013-03-11 08:20:00,
2013-03-11 02:25:00,43.9,-22.7,30.17,WNW,288,5.0,-999.0,5,0.00,,,0.00,0,WeatherHawk,2013-03-11 08:25:00,
2013-03-11 02:30:00,43.1,-23.2,30.17,WSW,244,2.0,-999.0,5,0.00,,,0.00,0,WeatherHawk,2013-03-11 08:30:00,
2013-03-11 02:35:00,42.0,-28.2,30.16,SW,228,0.0,-999.0,4,0.00,,,0.00,0,WeatherHawk,2013-03-11 08:35:00,
2013-03-11 02:45:00,41.2,-9.2,30.16,SW,226,0.0,-999.0,11,0.00,,,0.00,0,WeatherHawk,2013-03-11 08:45:00,
2013-03-11 02:50:00,42.0,-8.6,30.15,SW,231,2.0,-999.0,11,0.00,,,0.00,0,WeatherHawk,2013-03-11 08:50:00,
2013-03-11 03:00:00,43.8,-22.7,30.15,WNW,295,7.0,-999.0,5,0.00,,,0.00,0,WeatherHawk,2013-03-11 09:00:00,
2013-03-11 03:05:00,44.7,-22.1,30.15,WNW,303,13.0,-999.0,5,0.00,,,0.00,0,WeatherHawk,2013-03-11 09:05:00,
2013-03-11 03:15:00,43.8,-26.9,30.15,NW,306,11.0,-999.0,4,0.00,,,0.00,0,WeatherHawk,2013-03-11 09:15:00,
2013-03-11 03:20:00,43.4,-27.2,30.14,West,279,9.0,-999.0,4,0.00,,,0.00,0,WeatherHawk,2013-03-11 09:20:00,
2013-03-11 03:25:00,44.1,-26.7,30.13,West,269,17.0,-999.0,4,0.00,,,0.00,0,WeatherHawk,2013-03-11 09:25:00,
2013-03-11 03:30:00,43.5,-27.1,30.13,WSW,245,9.0,-999.0,4,0.00,,,0.00,0,WeatherHawk,2013-03-11 09:30:00,
2013-03-11 03:35:00,43.3,-27.2,30.13,WNW,290,7.0,-999.0,4,0.00,,,0.00,0,WeatherHawk,2013-03-11 09:35:00,
2013-03-11 03:40:00,43.7,-26.9,30.13,West,260,12.0,-999.0,4,0.00,,,0.00,0,WeatherHawk,2013-03-11 09:40:00,
2013-03-11 03:50:00,44.0,-26.7,30.13,West,262,10.0,-999.0,4,0.00,,,0.00,0,WeatherHawk,2013-03-11 09:50:00,
2013-03-11 03:55:00,44.1,-26.6,30.13,West,275,10.0,-999.0,4,0.00,,,0.00,0,WeatherHawk,2013-03-11 09:55:00,
2013-03-11 04:00:00,44.2,-26.6,30.12,WSW,248,7.0,-999.0,4,0.00,,,0.00,0,WeatherHawk,2013-03-11 10:00:00,
2013-03-11 04:05:00,44.0,-26.7,30.12,WNW,292,7.0,-999.0,4,0.00,,,0.00,0,WeatherHawk,2013-03-11 10:05:00,
2013-03-11 04:15:00,44.3,-26.5,30.12,WSW,255,10.0,-999.0,4,0.00,,,0.00,0,WeatherHawk,2013-03-11 10:15:00,
2013-03-11 04:20:00,43.3,-27.2,30.12,WNW,303,4.0,-999.0,4,0.00,,,0.00,0,WeatherHawk,2013-03-11 10:20:00,
2013-03-11 04:25:00,43.4,-27.2,30.12,NW,305,5.0,-999.0,4,0.00,,,0.00,0,WeatherHawk,2013-03-11 10:25:00,
2013-03-11 04:30:00,44.0,-26.7,30.12,West,261,3.0,-999.0,4,0.00,,,0.00,0,WeatherHawk,2013-03-11 10:30:00,
2013-03-11 04:40:00,43.8,-26.9,30.13,North,350,5.0,-999.0,4,0.00,,,0.00,0,WeatherHawk,2013-03-11 10:40:00,
2013-03-11 04:45:00,43.8,-26.9,30.12,West,281,11.0,-999.0,4,0.00,,,0.00,0,WeatherHawk,2013-03-11 10:45:00,
2013-03-11 04:50:00,42.7,-27.7,30.12,SW,221,6.0,-999.0,4,0.00,,,0.00,0,WeatherHawk,2013-03-11 10:50:00,
2013-03-11 04:55:00,42.6,-20.1,30.12,NW,306,4.0,-999.0,6,0.00,,,0.00,0,WeatherHawk,2013-03-11 10:55:00,
2013-03-11 05:05:00,42.2,-8.5,30.13,West,263,6.0,-999.0,11,0.00,,,0.00,0,WeatherHawk,2013-03-11 11:05:00,
2013-03-11 05:10:00,41.4,-11.1,30.14,WSW,254,6.0,-999.0,10,0.00,,,0.00,0,WeatherHawk,2013-03-11 11:10:00,
2013-03-11 05:15:00,41.7,-8.9,30.13,West,260,7.0,-999.0,11,0.00,,,0.00,0,WeatherHawk,2013-03-11 11:15:00,
2013-03-11 05:20:00,41.9,-8.7,30.13,West,271,4.0,-999.0,11,0.00,,,0.00,0,WeatherHawk,2013-03-11 11:20:00,
2013-03-11 05:25:00,41.2,-9.2,30.13,SSW,192,3.0,-999.0,11,0.00,,,0.00,0,WeatherHawk,2013-03-11 11:25:00,
2013-03-11 05:30:00,41.8,-8.8,30.14,WSW,255,2.0,-999.0,11,0.00,,,0.00,0,WeatherHawk,2013-03-11 11:30:00,
2013-03-11 05:35:00,41.9,-7.0,30.14,WSW,245,3.0,-999.0,12,0.00,,,0.00,0,WeatherHawk,2013-03-11 11:35:00,
2013-03-11 05:40:00,42.6,-12.2,30.14,WSW,257,2.0,-999.0,9,0.00,,,0.00,0,WeatherHawk,2013-03-11 11:40:00,
2013-03-11 05:50:00,41.7,-7.1,30.15,WSW,239,0.0,-999.0,12,0.00,,,0.00,0,WeatherHawk,2013-03-11 11:50:00,
2013-03-11 06:00:00,41.7,-12.9,30.15,SW,234,1.0,-999.0,9,0.00,,,0.00,0,WeatherHawk,2013-03-11 12:00:00,
2013-03-11 06:05:00,40.3,-10.0,30.15,SW,234,0.0,-999.0,11,0.00,,,0.00,0,WeatherHawk,2013-03-11 12:05:00,
2013-03-11 06:10:00,42.4,-14.7,30.14,WNW,288,4.0,-999.0,8,0.00,,,0.00,0,WeatherHawk,2013-03-11 12:10:00,
2013-03-11 06:15:00,44.0,-22.6,30.14,WSW,257,9.0,-999.0,5,0.00,,,0.00,0,WeatherHawk,2013-03-11 12:15:00,
2013-03-11 06:20:00,45.3,-21.6,30.14,West,276,16.0,-999.0,5,0.00,,,0.00,0,WeatherHawk,2013-03-11 12:20:00,
2013-03-11 06:25:00,44.8,-26.2,30.14,WNW,299,2.0,-999.0,4,0.00,,,0.00,0,WeatherHawk,2013-03-11 12:25:00,
2013-03-11 06:30:00,44.7,-26.2,30.14,WNW,288,8.0,-999.0,4,0.00,,,0.00,0,WeatherHawk,2013-03-11 12:30:00,
2013-03-11 06:35:00,43.4,-27.1,30.14,West,264,6.0,-999.0,4,0.00,,,0.00,0,WeatherHawk,2013-03-11 12:35:00,
2013-03-11 06:40:00,44.2,-26.6,30.14,West,262,7.0,-999.0,4,0.00,,,0.00,0,WeatherHawk,2013-03-11 12:40:00,
2013-03-11 06:45:00,44.2,-26.6,30.14,WNW,290,12.0,-999.0,4,0.00,,,0.00,0,WeatherHawk,2013-03-11 12:45:00,
2013-03-11 06:55:00,44.4,-22.3,30.13,West,271,16.0,-999.0,5,0.00,,,0.00,0,WeatherHawk,2013-03-11 12:55:00,
2013-03-11 07:05:00,43.4,-27.1,30.13,West,265,13.0,-999.0,4,0.00,,,0.00,0,WeatherHawk,2013-03-11 13:05:00,
2013-03-11 07:10:00,44.6,-26.3,30.14,WSW,251,15.0,-999.0,4,0.00,,,0.00,0,WeatherHawk,2013-03-11 13:10:00,
2013-03-11 07:15:00,43.9,-26.8,30.14,WNW,295,12.0,-999.0,4,0.00,,,0.00,1,WeatherHawk,2013-03-11 13:15:00,
2013-03-11 07:20:00,43.6,-27.0,30.14,WSW,255,11.0,-999.0,4,0.00,,,0.00,3,WeatherHawk,2013-03-11 13:20:00,
2013-03-11 07:30:00,44.2,-26.6,30.15,West,273,11.0,-999.0,4,0.00,,,0.00,8,WeatherHawk,2013-03-11 13:30:00,
2013-03-11 07:35:00,43.9,-26.8,30.15,West,271,13.0,-999.0,4,0.00,,,0.00,9,WeatherHawk,2013-03-11 13:35:00,
2013-03-11 07:40:00,43.7,-26.9,30.15,West,263,12.0,-999.0,4,0.00,,,0.00,12,WeatherHawk,2013-03-11 13:40:00,
2013-03-11 07:45:00,43.4,-27.1,30.16,West,261,11.0,-999.0,4,0.00,,,0.00,14,WeatherHawk,2013-03-11 13:45:00,
2013-03-11 07:50:00,42.9,-27.5,30.16,WNW,291,5.0,-999.0,4,0.00,,,0.00,16,WeatherHawk,2013-03-11 13:50:00,
2013-03-11 07:55:00,43.1,-27.4,30.16,WNW,296,11.0,-999.0,4,0.00,,,0.00,19,WeatherHawk,2013-03-11 13:55:00,
2013-03-11 08:00:00,42.7,-27.7,30.16,WNW,291,7.0,-999.0,4,0.00,,,0.00,22,WeatherHawk,2013-03-11 14:00:00,
2013-03-11 08:10:00,43.6,-27.0,30.16,NW,304,9.0,-999.0,4,0.00,,,0.00,44,WeatherHawk,2013-03-11 14:10:00,
2013-03-11 08:15:00,44.0,-22.6,30.17,West,270,10.0,-999.0,5,0.00,,,0.00,59,WeatherHawk,2013-03-11 14:15:00,
2013-03-11 08:20:00,44.3,-26.6,30.17,SW,235,11.0,-999.0,4,0.00,,,0.00,68,WeatherHawk,2013-03-11 14:20:00,
2013-03-11 08:25:00,44.1,-22.5,30.17,WSW,256,10.0,-999.0,5,0.00,,,0.00,73,WeatherHawk,2013-03-11 14:25:00,
2013-03-11 08:35:00,45.2,-21.7,30.18,SSW,204,4.0,-999.0,5,0.00,,,0.00,121,WeatherHawk,2013-03-11 14:35:00,
2013-03-11 08:45:00,44.5,-22.2,30.18,WSW,239,12.0,-999.0,5,0.00,,,0.00,137,WeatherHawk,2013-03-11 14:45:00,
2013-03-11 08:55:00,46.9,-24.7,30.16,NW,309,9.0,-999.0,4,0.00,,,0.00,216,WeatherHawk,2013-03-11 14:55:00,
2013-03-11 09:00:00,48.1,-19.6,30.17,WNW,288,4.0,-999.0,5,0.00,,,0.00,206,WeatherHawk,2013-03-11 15:00:00,
2013-03-11 09:05:00,48.1,-23.9,30.16,WSW,245,10.0,-999.0,4,0.00,,,0.00,265,WeatherHawk,2013-03-11 15:05:00,
2013-03-11 09:10:00,48.7,-23.4,30.17,WSW,251,6.0,-999.0,4,0.00,,,0.00,229,WeatherHawk,2013-03-11 15:10:00,
2013-03-11 09:15:00,48.3,-23.7,30.16,WSW,245,7.0,-999.0,4,0.00,,,0.00,274,WeatherHawk,2013-03-11 15:15:00,
2013-03-11 09:20:00,50.1,-22.5,30.17,WSW,256,4.0,-999.0,4,0.00,,,0.00,323,WeatherHawk,2013-03-11 15:20:00,
2013-03-11 09:25:00,50.5,-22.1,30.16,SE,144,1.0,-999.0,4,0.00,,,0.00,345,WeatherHawk,2013-03-11 15:25:00,
2013-03-11 09:30:00,48.0,-23.9,30.16,WSW,244,9.0,-999.0,4,0.00,,,0.00,372,WeatherHawk,2013-03-11 15:30:00,
2013-03-11 09:40:00,49.2,-23.1,30.17,NW,322,5.0,-999.0,4,0.00,,,0.00,401,WeatherHawk,2013-03-11 15:40:00,
2013-03-11 09:45:00,48.9,-23.3,30.16,WNW,299,7.0,-999.0,4,0.00,,,0.00,349,WeatherHawk,2013-03-11 15:45:00,
2013-03-11 09:50:00,49.5,-22.9,30.16,West,279,7.0,-999.0,4,0.00,,,0.00,440,WeatherHawk,2013-03-11 15:50:00,
2013-03-11 09:55:00,51.4,-21.5,30.17,SW,219,4.0,-999.0,4,0.00,,,0.00,393,WeatherHawk,2013-03-11 15:55:00,
2013-03-11 10:05:00,50.1,-22.5,30.16,West,263,10.0,-999.0,4,0.00,,,0.00,354,WeatherHawk,2013-03-11 16:05:00,
2013-03-11 10:10:00,50.2,-22.3,30.16,NW,313,5.0,-999.0,4,0.00,,,0.00,321,WeatherHawk,2013-03-11 16:10:00,
2013-03-11 10:15:00,50.1,-22.5,30.16,SW,232,8.0,-999.0,4,0.00,,,0.00,397,WeatherHawk,2013-03-11 16:15:00,
2013-03-11 10:25:00,50.6,-22.1,30.16,WNW,293,6.0,-999.0,4,0.00,,,0.00,458,WeatherHawk,2013-03-11 16:25:00,
2013-03-11 10:30:00,53.8,-19.9,30.17,SSW,202,3.0,-999.0,4,0.00,,,0.00,465,WeatherHawk,2013-03-11 16:30:00,
2013-03-11 10:35:00,52.6,-20.7,30.16,SW,219,7.0,-999.0,4,0.00,,,0.00,451,WeatherHawk,2013-03-11 16:35:00,
2013-03-11 10:45:00,51.6,-21.4,30.16,SSW,205,4.0,-999.0,4,0.00,,,0.00,522,WeatherHawk,2013-03-11 16:45:00,
2013-03-11 10:50:00,55.7,-18.5,30.16,SW,223,3.0,-999.0,4,0.00,,,0.00,535,WeatherHawk,2013-03-11 16:50:00,
2013-03-11 10:55:00,53.8,-19.9,30.16,WNW,293,4.0,-999.0,4,0.00,,,0.00,572,WeatherHawk,2013-03-11 16:55:00,
2013-03-11 11:00:00,53.9,-19.8,30.16,WSW,241,5.0,-999.0,4,0.00,,,0.00,589,WeatherHawk,2013-03-11 17:00:00,
2013-03-11 11:10:00,54.3,-19.5,30.15,NW,318,5.0,-999.0,4,0.00,,,0.00,621,WeatherHawk,2013-03-11 17:10:00,
2013-03-11 11:15:00,52.2,-21.0,30.15,SW,215,12.0,-999.0,4,0.00,,,0.00,621,WeatherHawk,2013-03-11 17:15:00,
2013-03-11 11:20:00,52.9,-20.5,30.15,SW,223,14.0,-999.0,4,0.00,,,0.00,566,WeatherHawk,2013-03-11 17:20:00,
2013-03-11 11:25:00,54.2,-19.6,30.15,WNW,294,4.0,-999.0,4,0.00,,,0.00,657,WeatherHawk,2013-03-11 17:25:00,
2013-03-11 11:30:00,51.5,-21.5,30.15,WNW,285,8.0,-999.0,4,0.00,,,0.00,518,WeatherHawk,2013-03-11 17:30:00,
2013-03-11 11:35:00,50.3,-22.3,30.14,WNW,294,13.0,-999.0,4,0.00,,,0.00,494,WeatherHawk,2013-03-11 17:35:00,
2013-03-11 11:40:00,51.3,-21.6,30.14,NNW,330,5.0,-999.0,4,0.00,,,0.00,567,WeatherHawk,2013-03-11 17:40:00,
2013-03-11 11:45:00,51.6,-21.4,30.15,West,260,9.0,-999.0,4,0.00,,,0.00,737,WeatherHawk,2013-03-11 17:45:00,
2013-03-11 11:50:00,50.9,-21.9,30.15,WNW,288,7.0,-999.0,4,0.00,,,0.00,448,WeatherHawk,2013-03-11 17:50:00,
2013-03-11 11:55:00,52.4,-20.8,30.14,WNW,290,6.0,-999.0,4,0.00,,,0.00,709,WeatherHawk,2013-03-11 17:55:00,
2013-03-11 12:05:00,55.7,-18.5,30.13,WNW,283,3.0,-999.0,4,0.00,,,0.00,788,WeatherHawk,2013-03-11 18:05:00,
2013-03-11 12:10:00,53.6,-20.0,30.13,SW,235,6.0,-999.0,4,0.00,,,0.00,754,WeatherHawk,2013-03-11 18:10:00,
2013-03-11 12:15:00,53.5,-20.1,30.12,South,186,5.0,-999.0,4,0.00,,,0.00,597,WeatherHawk,2013-03-11 18:15:00,
2013-03-11 12:20:00,50.8,-21.9,30.11,West,265,11.0,-999.0,4,0.00,,,0.00,483,WeatherHawk,2013-03-11 18:20:00,
2013-03-11 12:25:00,54.5,-19.4,30.12,East,91,2.0,-999.0,4,0.00,,,0.00,654,WeatherHawk,2013-03-11 18:25:00,
2013-03-11 12:30:00,51.7,-21.3,30.12,WNW,285,15.0,-999.0,4,0.00,,,0.00,558,WeatherHawk,2013-03-11 18:30:00,
2013-03-11 12:35:00,53.1,-20.3,30.11,WNW,299,11.0,-999.0,4,0.00,,,0.00,549,WeatherHawk,2013-03-11 18:35:00,
2013-03-11 12:40:00,50.4,-22.2,30.11,WNW,282,19.0,-999.0,4,0.00,,,0.00,305,WeatherHawk,2013-03-11 18:40:00,
2013-03-11 12:45:00,50.2,-22.3,30.12,WSW,241,13.0,-999.0,4,0.00,,,0.00,472,WeatherHawk,2013-03-11 18:45:00,
2013-03-11 12:55:00,51.8,-21.2,30.12,WSW,252,10.0,-999.0,4,0.00,,,0.00,462,WeatherHawk,2013-03-11 18:55:00,
2013-03-11 13:05:00,53.5,-20.0,30.12,NNW,347,10.0,-999.0,4,0.00,,,0.00,450,WeatherHawk,2013-03-11 19:05:00,
2013-03-11 13:10:00,51.2,-21.7,30.11,WNW,290,13.0,-999.0,4,0.00,,,0.00,337,WeatherHawk,2013-03-11 19:10:00,
2013-03-11 13:15:00,51.1,-21.7,30.12,WSW,250,9.0,-999.0,4,0.00,,,0.00,342,WeatherHawk,2013-03-11 19:15:00,
2013-03-11 13:20:00,50.8,-22.0,30.11,WSW,246,15.0,-999.0,4,0.00,,,0.00,283,WeatherHawk,2013-03-11 19:20:00,
2013-03-11 13:25:00,50.7,-22.1,30.12,West,271,12.0,-999.0,4,0.00,,,0.00,261,WeatherHawk,2013-03-11 19:25:00,
2013-03-11 13:35:00,50.5,-22.2,30.11,WSW,253,8.0,-999.0,4,0.00,,,0.00,235,WeatherHawk,2013-03-11 19:35:00,
2013-03-11 13:45:00,50.9,-21.9,30.11,West,260,8.0,-999.0,4,0.00,,,0.00,318,WeatherHawk,2013-03-11 19:45:00,
2013-03-11 13:50:00,50.5,-22.2,30.10,West,281,11.0,-999.0,4,0.00,,,0.00,245,WeatherHawk,2013-03-11 19:50:00,
2013-03-11 14:00:00,51.1,-21.8,30.11,NW,316,8.0,-999.0,4,0.00,,,0.00,247,WeatherHawk,2013-03-11 20:00:00,
2013-03-11 14:05:00,51.5,-21.4,30.10,SW,219,9.0,-999.0,4,0.00,,,0.00,257,WeatherHawk,2013-03-11 20:05:00,
2013-03-11 14:15:00,50.6,-22.1,30.10,West,262,12.0,-999.0,4,0.00,,,0.00,244,WeatherHawk,2013-03-11 20:15:00,
2013-03-11 14:20:00,50.4,-22.2,30.10,SW,234,18.0,-999.0,4,0.00,,,0.00,235,WeatherHawk,2013-03-11 20:20:00,
2013-03-11 14:25:00,50.8,-21.9,30.09,NW,304,13.0,-999.0,4,0.00,,,0.00,233,WeatherHawk,2013-03-11 20:25:00,
2013-03-11 14:30:00,51.1,-21.7,30.09,West,269,12.0,-999.0,4,0.00,,,0.00,222,WeatherHawk,2013-03-11 20:30:00,
2013-03-11 14:35:00,51.5,-21.5,30.09,WNW,290,8.0,-999.0,4,0.00,,,0.00,218,WeatherHawk,2013-03-11 20:35:00,
2013-03-11 14:40:00,51.1,-21.7,30.09,WSW,249,17.0,-999.0,4,0.00,,,0.00,215,WeatherHawk,2013-03-11 20:40:00,
2013-03-11 14:45:00,51.0,-21.8,30.09,WSW,256,11.0,-999.0,4,0.00,,,0.00,210,WeatherHawk,2013-03-11 20:45:00,
2013-03-11 14:50:00,50.9,-21.9,30.09,West,270,11.0,-999.0,4,0.00,,,0.00,199,WeatherHawk,2013-03-11 20:50:00,
2013-03-11 15:00:00,51.3,-21.6,30.10,West,274,14.0,-999.0,4,0.00,,,0.00,213,WeatherHawk,2013-03-11 21:00:00,
2013-03-11 15:05:00,51.7,-21.3,30.10,WNW,296,5.0,-999.0,4,0.00,,,0.00,224,WeatherHawk,2013-03-11 21:05:00,
2013-03-11 15:10:00,51.7,-21.4,30.10,NW,305,6.0,-999.0,4,0.00,,,0.00,235,WeatherHawk,2013-03-11 21:10:00,
2013-03-11 15:20:00,51.8,-21.3,30.10,WSW,242,10.0,-999.0,4,0.00,,,0.00,221,WeatherHawk,2013-03-11 21:20:00,
2013-03-11 15:25:00,52.1,-21.1,30.10,WSW,253,12.0,-999.0,4,0.00,,,0.00,255,WeatherHawk,2013-03-11 21:25:00,
2013-03-11 15:30:00,53.3,-20.2,30.10,West,260,10.0,-999.0,4,0.00,,,0.00,440,WeatherHawk,2013-03-11 21:30:00,
2013-03-11 15:35:00,54.4,-19.4,30.09,WSW,246,11.0,-999.0,4,0.00,,,0.00,692,WeatherHawk,2013-03-11 21:35:00,
2013-03-11 15:40:00,53.3,-20.2,30.09,WNW,287,12.0,-999.0,4,0.00,,,0.00,261,WeatherHawk,2013-03-11 21:40:00,
2013-03-11 15:50:00,52.4,-20.8,30.10,WSW,240,16.0,-999.0,4,0.00,,,0.00,271,WeatherHawk,2013-03-11 21:50:00,
2013-03-11 15:55:00,54.2,-19.6,30.09,WSW,249,12.0,-999.0,4,0.00,,,0.00,645,WeatherHawk,2013-03-11 21:55:00,
2013-03-11 16:00:00,54.7,-19.2,30.09,SW,226,7.0,-999.0,4,0.00,,,0.00,696,WeatherHawk,2013-03-11 22:00:00,
2013-03-11 16:05:00,57.1,-17.6,30.09,WSW,240,5.0,-999.0,4,0.00,,,0.00,688,WeatherHawk,2013-03-11 22:05:00,
2013-03-11 16:10:00,55.6,-18.6,30.09,WSW,244,13.0,-999.0,4,0.00,,,0.00,639,WeatherHawk,2013-03-11 22:10:00,
2013-03-11 16:15:00,55.1,-18.9,30.09,West,272,7.0,-999.0,4,0.00,,,0.00,369,WeatherHawk,2013-03-11 22:15:00,
2013-03-11 16:25:00,54.6,-19.3,30.10,WSW,253,11.0,-999.0,4,0.00,,,0.00,224,WeatherHawk,2013-03-11 22:25:00,
2013-03-11 16:35:00,56.5,-17.9,30.10,NW,326,7.0,-999.0,4,0.00,,,0.00,560,WeatherHawk,2013-03-11 22:35:00,
2013-03-11 16:45:00,40.2,-14.1,30.13,ENE,60,18.0,-999.0,9,0.00,,,0.00,495,WeatherHawk,2013-03-11 22:45:00,
2013-03-11 16:50:00,41.0,-3.0,30.15,NE,43,7.0,-999.0,15,0.00,,,0.00,214,WeatherHawk,2013-03-11 22:50:00,
2013-03-11 16:55:00,38.2,0.7,30.15,NE,55,13.0,-999.0,20,0.00,,,0.00,125,WeatherHawk,2013-03-11 22:55:00,
2013-03-11 17:00:00,37.8,4.3,30.15,ENE,60,13.0,-999.0,24,0.00,,,0.00,105,WeatherHawk,2013-03-11 23:00:00,
2013-03-11 17:05:00,37.6,5.8,30.17,NNE,28,14.0,-999.0,26,0.00,,,0.00,105,WeatherHawk,2013-03-11 23:05:00,
2013-03-11 17:15:00,37.3,8.0,30.18,NE,36,11.0,-999.0,29,0.00,,,0.00,80,WeatherHawk,2013-03-11 23:15:00,
2013-03-11 17:20:00,37.2,8.6,30.18,North,8,9.0,-999.0,30,0.00,,,0.00,92,WeatherHawk,2013-03-11 23:20:00,
2013-03-11 17:30:00,36.9,9.2,30.20,NE,46,10.0,-999.0,31,0.00,,,0.00,79,WeatherHawk,2013-03-11 23:30:00,
2013-03-11 17:35:00,36.7,9.6,30.20,NE,52,9.0,-999.0,32,0.00,,,0.00,58,WeatherHawk,2013-03-11 23:35:00,
2013-03-11 17:40:00,36.7,10.3,30.21,NE,54,6.0,-999.0,33,0.00,,,0.00,50,WeatherHawk,2013-03-11 23:40:00,
2013-03-11 17:45:00,36.2,9.9,30.21,NNE,27,10.0,-999.0,33,0.00,,,0.00,36,WeatherHawk,2013-03-11 23:45:00,
2013-03-11 17:50:00,36.3,10.6,30.22,NE,54,10.0,-999.0,34,0.00,,,0.00,39,WeatherHawk,2013-03-11 23:50:00,
2013-03-11 17:55:00,36.0,10.4,30.22,NE,47,7.0,-999.0,34,0.00,,,0.00,27,WeatherHawk,2013-03-11 23:55:00,
2013-03-11 18:05:00,36.1,11.8,30.24,North,0,6.0,-999.0,36,0.00,,,0.00,22,WeatherHawk,2013-03-12 00:05:00,
2013-03-11 18:10:00,35.5,10.6,30.23,NE,42,4.0,-999.0,35,0.00,,,0.00,19,WeatherHawk,2013-03-12 00:10:00,
2013-03-11 18:15:00,35.5,11.2,30.25,NE,48,4.0,-999.0,36,0.00,,,0.00,10,WeatherHawk,2013-03-12 00:15:00,
2013-03-11 18:20:00,34.8,10.6,30.24,NE,47,5.0,-999.0,36,0.00,,,0.00,8,WeatherHawk,2013-03-12 00:20:00,
2013-03-11 18:25:00,34.7,11.8,30.25,North,9,3.0,-999.0,38,0.00,,,0.00,11,WeatherHawk,2013-03-12 00:25:00,
2013-03-11 18:30:00,34.3,12.0,30.25,NE,53,6.0,-999.0,39,0.00,,,0.00,7,WeatherHawk,2013-03-12 00:30:00,
2013-03-11 18:35:00,34.5,12.7,30.25,ENE,67,5.0,-999.0,40,0.00,,,0.00,7,WeatherHawk,2013-03-12 00:35:00,
2013-03-11 18:40:00,34.6,13.3,30.26,North,9,2.0,-999.0,41,0.00,,,0.00,3,WeatherHawk,2013-03-12 00:40:00,
2013-03-11 18:45:00,34.5,13.2,30.26,NNE,23,4.0,-999.0,41,0.00,,,0.00,1,WeatherHawk,2013-03-12 00:45:00,
2013-03-11 18:50:00,34.2,13.5,30.26,NE,39,5.0,-999.0,42,0.00,,,0.00,0,WeatherHawk,2013-03-12 00:50:00,
2013-03-11 18:55:00,34.1,13.4,30.27,NNE,12,4.0,-999.0,42,0.00,,,0.00,0,WeatherHawk,2013-03-12 00:55:00,
2013-03-11 19:05:00,33.9,13.2,30.27,NE,39,3.0,-999.0,42,0.00,,,0.00,0,WeatherHawk,2013-03-12 01:05:00,
2013-03-11 19:10:00,33.5,12.9,30.27,NE,47,7.0,-999.0,42,0.00,,,0.00,1,WeatherHawk,2013-03-12 01:10:00,
2013-03-11 19:15:00,33.3,13.3,30.28,NE,38,0.0,-999.0,43,0.00,,,0.00,0,WeatherHawk,2013-03-12 01:15:00,
2013-03-11 19:25:00,32.5,14.5,30.28,ENE,70,4.0,-999.0,47,0.00,,,0.00,0,WeatherHawk,2013-03-12 01:25:00,
2013-03-11 19:30:00,31.9,15.0,30.28,East,81,5.0,-999.0,49,0.00,,,0.00,0,WeatherHawk,2013-03-12 01:30:00,
2013-03-11 19:35:00,31.9,15.9,30.28,East,83,5.0,-999.0,51,0.00,,,0.00,0,WeatherHawk,2013-03-12 01:35:00,
2013-03-11 19:40:00,31.7,16.5,30.28,East,93,9.0,-999.0,53,0.00,,,0.00,0,WeatherHawk,2013-03-12 01:40:00,
2013-03-11 19:45:00,31.6,17.3,30.29,East,85,4.0,-999.0,55,0.00,,,0.00,0,WeatherHawk,2013-03-12 01:45:00,
2013-03-11 19:50:00,31.4,17.9,30.29,East,91,2.0,-999.0,57,0.00,,,0.00,0,WeatherHawk,2013-03-12 01:50:00,
2013-03-11 19:55:00,31.4,18.3,30.30,East,91,0.0,-999.0,58,0.00,,,0.00,0,WeatherHawk,2013-03-12 01:55:00,
2013-03-11 20:00:00,31.2,18.5,30.29,ESE,111,1.0,-999.0,59,0.00,,,0.00,0,WeatherHawk,2013-03-12 02:00:00,
2013-03-11 20:05:00,31.1,18.9,30.30,ESE,112,1.0,-999.0,60,0.00,,,0.00,0,WeatherHawk,2013-03-12 02:05:00,
2013-03-11 20:10:00,31.1,19.2,30.30,ESE,105,0.0,-999.0,61,0.00,,,0.00,0,WeatherHawk,2013-03-12 02:10:00,
2013-03-11 20:15:00,31.2,19.7,30.30,ESE,105,0.0,-999.0,62,0.00,,,0.00,0,WeatherHawk,2013-03-12 02:15:00,
2013-03-11 20:20:00,31.2,20.0,30.30,ESE,105,0.0,-999.0,63,0.00,,,0.00,1,WeatherHawk,2013-03-12 02:20:00,
2013-03-11 20:25:00,31.1,20.0,30.30,SSE,147,0.0,-999.0,63,0.00,,,0.00,0,WeatherHawk,2013-03-12 02:25:00,
2013-03-11 20:35:00,31.0,20.3,30.31,ESE,120,4.0,-999.0,64,0.00,,,0.00,0,WeatherHawk,2013-03-12 02:35:00,
2013-03-11 20:40:00,31.0,20.7,30.31,SE,140,1.0,-999.0,65,0.00,,,0.00,0,WeatherHawk,2013-03-12 02:40:00,
2013-03-11 20:45:00,31.0,20.6,30.31,SSE,162,1.0,-999.0,65,0.00,,,0.00,0,WeatherHawk,2013-03-12 02:45:00,
2013-03-11 20:50:00,31.0,20.6,30.32,SSE,155,0.0,-999.0,65,0.00,,,0.00,0,WeatherHawk,2013-03-12 02:50:00,
2013-03-11 20:55:00,31.0,21.0,30.32,East,86,3.0,-999.0,66,0.00,,,0.00,0,WeatherHawk,2013-03-12 02:55:00,
2013-03-11 21:00:00,31.1,21.1,30.33,East,92,0.0,-999.0,66,0.00,,,0.00,0,WeatherHawk,2013-03-12 03:00:00,
2013-03-11 21:10:00,31.1,21.0,30.32,East,91,0.0,-999.0,66,0.00,,,0.00,0,WeatherHawk,2013-03-12 03:10:00,
2013-03-11 21:15:00,31.1,21.5,30.33,East,92,0.0,-999.0,67,0.00,,,0.00,0,WeatherHawk,2013-03-12 03:15:00,
2013-03-11 21:20:00,31.1,21.4,30.33,SE,137,0.0,-999.0,67,0.00,,,0.00,0,WeatherHawk,2013-03-12 03:20:00,
2013-03-11 21:25:00,30.9,21.3,30.33,SE,137,0.0,-999.0,67,0.00,,,0.00,0,WeatherHawk,2013-03-12 03:25:00,
2013-03-11 21:35:00,30.9,21.3,30.32,SE,137,0.0,-999.0,67,0.00,,,0.00,0,WeatherHawk,2013-03-12 03:35:00,
2013-03-11 21:40:00,30.9,21.2,30.33,SE,137,0.0,-999.0,67,0.00,,,0.00,0,WeatherHawk,2013-03-12 03:40:00,
2013-03-11 21:50:00,30.8,21.2,30.32,SE,137,0.0,-999.0,67,0.00,,,0.00,0,WeatherHawk,2013-03-12 03:50:00,
2013-03-11 21:55:00,30.8,21.5,30.33,SE,137,0.0,-999.0,68,0.00,,,0.00,0,WeatherHawk,2013-03-12 03:55:00,
2013-03-11 22:05:00,30.8,21.5,30.34,SE,137,0.0,-999.0,68,0.00,,,0.00,0,WeatherHawk,2013-03-12 04:05:00,
2013-03-11 22:10:00,30.9,21.6,30.33,SE,137,0.0,-999.0,68,0.00,,,0.00,0,WeatherHawk,2013-03-12 04:10:00,
2013-03-11 22:15:00,30.9,21.6,30.34,SE,137,0.0,-999.0,68,0.00,,,0.00,1,WeatherHawk,2013-03-12 04:15:00,
2013-03-11 22:20:00,30.9,21.6,30.34,SE,137,0.0,-999.0,68,0.00,,,0.00,0,WeatherHawk,2013-03-12 04:20:00,
2013-03-11 22:25:00,30.8,21.5,30.33,SE,137,0.0,-999.0,68,0.00,,,0.00,0,WeatherHawk,2013-03-12 04:25:00,
2013-03-11 22:30:00,30.9,21.9,30.34,SE,137,0.0,-999.0,69,0.00,,,0.00,0,WeatherHawk,2013-03-12 04:30:00,
2013-03-11 22:35:00,30.9,21.9,30.34,SE,137,0.0,-999.0,69,0.00,,,0.00,0,WeatherHawk,2013-03-12 04:35:00,
2013-03-11 22:40:00,30.9,21.9,30.35,SE,137,0.0,-999.0,69,0.00,,,0.00,0,WeatherHawk,2013-03-12 04:40:00,
2013-03-11 22:45:00,31.0,22.0,30.35,SE,137,0.0,-999.0,69,0.00,,,0.00,0,WeatherHawk,2013-03-12 04:45:00,
2013-03-11 22:50:00,30.9,22.0,30.36,SE,137,0.0,-999.0,69,0.00,,,0.00,0,WeatherHawk,2013-03-12 04:50:00,
2013-03-11 22:55:00,30.9,22.0,30.36,SE,137,0.0,-999.0,69,0.00,,,0.00,0,WeatherHawk,2013-03-12 04:55:00,
2013-03-11 23:00:00,30.9,21.9,30.36,SE,137,0.0,-999.0,69,0.00,,,0.00,0,WeatherHawk,2013-03-12 05:00:00,
2013-03-11 23:05:00,30.9,21.9,30.36,SE,137,0.0,-999.0,69,0.00,,,0.00,1,WeatherHawk,2013-03-12 05:05:00,
2013-03-11 23:15:00,30.8,21.8,30.36,SE,137,0.0,-999.0,69,0.00,,,0.00,0,WeatherHawk,2013-03-12 05:15:00,
2013-03-11 23:20:00,30.8,21.8,30.35,SE,137,0.0,-999.0,69,0.00,,,0.00,0,WeatherHawk,2013-03-12 05:20:00,
2013-03-11 23:25:00,30.7,21.8,30.35,SE,137,0.0,-999.0,69,0.00,,,0.00,0,WeatherHawk,2013-03-12 05:25:00,
2013-03-11 23:30:00,30.6,21.7,30.35,SE,137,0.0,-999.0,69,0.00,,,0.00,0,WeatherHawk,2013-03-12 05:30:00,
2013-03-11 23:40:00,30.5,21.6,30.36,SE,137,0.0,-999.0,69,0.00,,,0.00,0,WeatherHawk,2013-03-12 05:40:00,
2013-03-11 23:45:00,30.6,21.7,30.36,SE,137,0.0,-999.0,69,0.00,,,0.00,0,WeatherHawk,2013-03-12 05:45:00,
2013-03-11 23:50:00,30.5,21.6,30.35,SE,137,0.0,-999.0,69,0.00,,,0.00,0,WeatherHawk,2013-03-12 05:50:00,